Terminal Aerodrome Forecast
Issued by NWS Tulsa, OK

Home | Current Version | Previous Version | Text Only | Print | Product List | Glossary On
Versions: 1 2 3 4 5 6 7 8 9 10 11 12 13 14
000
FTUS44 KTSA 231720
TAFFSM
TAF
KFSM 231720Z 2318/2418 21010KT P6SM SCT025 OVC050
     FM240000 16008KT P6SM OVC250
     FM240900 07005KT P6SM BKN250
     FM241500 22008KT P6SM SCT250=

USA.gov is the U.S. government's official web portal to all federal, state and local government web resources and services.